Forside
METAR-TAF:

METAR-TAF

Lufthavne :

Ogden-Hinckley Airport

Ogden, Utah, USA

Breddekreds: 41-11-37N, længdekreds: 112-00-59W, højde: 1362 m

Aktuelle vejr

Denne rapport blev lavet for 34 minutter siden, kl. 06:53 UTC
Vind 8 kt fra syd
Temperatur -1°C
Fugtighed 46%
Tryk 1023 hPa
Sigt: 16.1 km
skyfri

METAR: KOGD 220653Z AUTO 18008KT 10SM CLR M01/M11 A3022 RMK AO2 SLP244 T10111111 400721078

Tid: 00:27 (07:27 UTC)

Vejrudsigter

Denne rapport blev lavet for 1 time og 52 minutter siden, kl. 05:35 UTC
Foreløbig gælder fra 22 på 06 UTC til 23 på 06 UTC
Vind 6 kt fra syd
Sigt: 10 km
Spredte skyer i en højde af 20000 ft
Fra 22 på 1800 UTC
Vind 5 kt fra nordnordvest
Sigt: 10 km
Spredte skyer i en højde af 12000 ft

TAF: KOGD 220535Z 2206/2306 17006KT P6SM SCT200 FM221800 34005KT P6SM SCT120

Vejrobservationer og prognoser fra mere end 4000 lufthavne (METAR og TAF).

De gule og røde prikker repræsenterer de meteorologiske stationer.

Flyt musen over at se navnet på stationen.

Så klik over at se vejr observationer og prognoser.

At skifte det kort: Klik på de grønne knapper med et sort kors for at zoome ind; på den grønne knap med en bindestreg for at zoome ud; eller på de grønne pile for tilstødende kort.


METAR-TAF: